Kodiak, AK

8:30 PM AKDT on September 01, 2014 (GMT -0800)
Pillar Mountain | Change Station
CLOSE
Current Station
Personal Weather Station
Location: Kodiak, AK
Elevation: 1204 ft
Nearby Weather Stations

Elev 1204 ft 57.79 °N, 152.44 °W | Updated 8 minutes ago

Scattered Clouds
Scattered Clouds
54.3 °F
Feels Like 54.3 °F
N
11.9
Wind Variable Wind from WSW

Today
High -- | Low -- °F
--% Chance of Precip.
Yesterday
High -- | Low -- °F
Precip. -- in
7:10 AM 9:07 PM
Waxing Crescent, 47% visible
Pressure 30.04 in
Visibility 10.0 miles
Clouds Few 5000 ft
Scattered Clouds 14000 ft
Scattered Clouds 25000 ft
Dew Point 43 °F
Humidity 66%
Rainfall 0.00 in
Snow Depth Not available.
UV 0 out of 12
Pollen Not available.
Air Quality Not available.
Flu Activity Not available.
METAR PADQ 020353Z 30006KT 10SM FEW050 SCT140 SCT250 17/06 A3004 RMK AO2 SLP172 T01670061

More Conditions Fewer Conditions

Pressure 30.04 in
Visibility 10.0 miles
Clouds Few 5000 ft
Scattered Clouds 14000 ft
Scattered Clouds 25000 ft
Dew Point 43 °F
Humidity 66%
Rainfall 0.00 in
Snow Depth Not available.
UV 0 out of 12
Pollen Not available.
Air Quality Not available.
Flu Activity Not available.
METAR PADQ 020353Z 30006KT 10SM FEW050 SCT140 SCT250 17/06 A3004 RMK AO2 SLP172 T01670061

More Conditions Fewer Conditions

10-Day Weather Forecast

Almanac

Astronomy

Sep. 01, 2014 Rise Set
Actual Time 7:10 AM AKDT 9:07 PM AKDT
Civil Twilight 6:28 AM AKDT 9:48 PM AKDT
Nautical Twilight 5:35 AM AKDT 10:41 PM AKDT
Astronomical Twilight 4:31 AM AKDT 11:44 PM AKDT
Moon 3:34 PM AKDT (9/1) 11:48 PM AKDT (9/1)
Length of Visible Light 15h 19m
Length of Day
13h 56m
Tomorrow will be 4m 54s shorter.
Waxing Crescent, 47% of the Moon is Illuminated
Sep 2
Waxing Crescent
Sep 2
First Quarter
Sep 8
Full
Sep 15
Last Quarter
Sep 24
New

Today's Extremes

State Highs State Lows

Community

WunderPhotos

Upload Photos

1,749,566 photos uploaded!

WunderBlogs® & News

Nearby

Snow Depth

Station Depth Elevation
Port Graham 0 in 300 ft
Mcneil Canyon 1 in 1320 ft
MF Bradley River 2 in 2300 ft
Cooper Lake 23 in 1200 ft
Grouse Creek Divide 0 in 700 ft

Earthquake Activity

City Distance Mag. Time & Date
No recent earthquake activity has been reported nearby.
Minimum magnitude displayed is 2.5.

Coastal Water Temperatures

Place Temperature
No Stations Reporting

Nearby Weather Stations